Terminal Aerodrome Forecast
Issued by NWS

Current Version | Previous Version | Text Only | Print | Product List | Glossary On
Versions: 1 2 3 4 5 6 7 8 9 10 11 12 13 14 15 16 17 18 19 20 21 22 23 24
000
FTUS45 KLKN 161100
TAFELY
TAF
KELY 161121Z 1612/1712 16010KT P6SM FEW110
     FM161900 19009KT P6SM SCT110
      TEMPO 1622/1702 VRB15G28KT TS SCT090CB
     FM170400 18013KT P6SM FEW120=

USA.gov is the U.S. government's official web portal to all federal, state and local government web resources and services.